Time;durP1;ratioP1;P1;durP2;ratioP2;P2;SDS_P1;SDS_P2;PMS_P1;PMS_P2;Temp;Humidity;BMP_temperature;BMP_pressure;BME280_temperature;BME280_humidity;BME280_pressure;Samples;Min_cycle;Max_cycle;Signal;HPM_P1;HPM_P2
2022/09/30 00:02:20;;;;;;;9.50;4.20;;;;;;;5.80;100.00;95765.94;10371647;28;20201;-60
2022/09/30 00:07:20;;;;;;;7.97;4.20;;;;;;;5.76;100.00;95773.22;10372437;28;20209;-60
2022/09/30 00:12:21;;;;;;;5.13;4.17;;;;;;;5.78;100.00;95766.09;10371862;28;20189;-62
2022/09/30 00:17:21;;;;;;;7.27;3.77;;;;;;;5.80;100.00;95763.34;10370132;28;20778;-59
2022/09/30 00:22:21;;;;;;;6.20;4.07;;;;;;;5.81;100.00;95763.19;10371866;28;20571;-59
2022/09/30 00:27:22;;;;;;;7.03;3.97;;;;;;;5.85;100.00;95761.09;10371804;28;20550;-60
2022/09/30 00:32:22;;;;;;;5.80;3.80;;;;;;;6.02;100.00;95764.69;10370767;28;20193;-59
2022/09/30 00:37:22;;;;;;;5.77;3.23;;;;;;;6.00;100.00;95772.63;10371394;28;20243;-56
2022/09/30 00:42:28;;;;;;;6.83;3.47;;;;;;;5.96;100.00;95783.47;10371051;28;20664;-57
2022/09/30 00:47:51;;;;;;;5.27;4.00;;;;;;;6.04;100.00;95783.53;10369603;28;20232;-59
2022/09/30 00:52:57;;;;;;;4.90;3.73;;;;;;;6.05;100.00;95787.78;10368953;28;20293;-61
2022/09/30 00:57:58;;;;;;;4.37;3.70;;;;;;;5.99;100.00;95786.59;10370017;28;20719;-62
2022/09/30 01:03:00;;;;;;;4.77;3.33;;;;;;;6.14;100.00;95783.44;10368764;28;20193;-62
2022/09/30 01:08:02;;;;;;;5.53;3.80;;;;;;;6.25;100.00;95785.81;10370381;28;20205;-62
2022/09/30 01:13:03;;;;;;;5.43;3.50;;;;;;;6.35;100.00;95778.69;10369254;28;21044;-59
2022/09/30 01:18:13;;;;;;;6.87;4.23;;;;;;;6.35;100.00;95776.09;10368610;28;20355;-60
2022/09/30 01:23:41;;;;;;;4.30;3.90;;;;;;;6.27;100.00;95783.84;10368216;28;20686;-58
2022/09/30 01:28:50;;;;;;;6.63;3.77;;;;;;;6.28;100.00;95785.50;10367619;28;20655;-60
2022/09/30 01:34:12;;;;;;;4.40;3.50;;;;;;;6.29;100.00;95786.31;10369201;28;20201;-60
2022/09/30 01:39:19;;;;;;;5.43;4.03;;;;;;;6.34;100.00;95784.88;10369854;28;20233;-60
2022/09/30 01:44:22;;;;;;;4.23;3.77;;;;;;;6.39;100.00;95787.03;10369370;28;20661;-59
2022/09/30 01:49:30;;;;;;;5.67;4.07;;;;;;;6.41;100.00;95792.88;10367976;28;20261;-59
2022/09/30 01:54:38;;;;;;;4.93;3.70;;;;;;;6.49;100.00;95803.34;10367768;28;20213;-61
2022/09/30 01:59:50;;;;;;;6.83;3.70;;;;;;;6.44;100.00;95802.97;10368530;28;20260;-61
2022/09/30 02:05:00;;;;;;;4.80;3.90;;;;;;;6.38;100.00;95794.00;10368106;28;20224;-60
2022/09/30 02:10:22;;;;;;;9.37;4.57;;;;;;;6.41;100.00;95800.69;10367581;28;20767;-59
2022/09/30 02:15:27;;;;;;;5.33;3.80;;;;;;;6.49;100.00;95810.34;10329195;28;20194;-60
2022/09/30 02:20:33;;;;;;;7.93;4.17;;;;;;;6.34;100.00;95816.09;10367836;28;20256;-58
2022/09/30 02:25:40;;;;;;;7.00;3.77;;;;;;;6.45;100.00;95816.81;10367810;28;20560;-62
2022/09/30 02:30:44;;;;;;;4.33;3.73;;;;;;;6.43;100.00;95817.78;10368897;28;20213;-61
2022/09/30 02:36:05;;;;;;;7.93;3.70;;;;;;;6.40;100.00;95815.50;10373712;28;20386;-59
2022/09/30 02:41:22;;;;;;;11.00;4.40;;;;;;;6.44;100.00;95823.81;10374586;28;20201;-61
2022/09/30 02:46:50;;;;;;;4.43;3.80;;;;;;;6.55;100.00;95820.94;10374688;28;20664;-60
2022/09/30 02:51:59;;;;;;;6.67;4.60;;;;;;;6.43;100.00;95819.56;10374224;28;20193;-58
2022/09/30 02:57:18;;;;;;;5.40;4.23;;;;;;;6.53;100.00;95811.66;10374505;28;20229;-61
2022/09/30 03:02:19;;;;;;;5.27;4.20;;;;;;;6.55;100.00;95812.31;10374843;28;20212;-62
2022/09/30 03:07:19;;;;;;;10.93;4.30;;;;;;;6.61;100.00;95809.09;10373991;28;20204;-62
2022/09/30 03:12:27;;;;;;;4.70;3.57;;;;;;;6.64;100.00;95824.41;10374350;28;20201;-60
2022/09/30 03:18:05;;;;;;;5.43;4.03;;;;;;;6.47;100.00;95826.09;10372127;28;20308;-62
2022/09/30 03:23:33;;;;;;;7.73;5.53;;;;;;;6.46;100.00;95828.84;10372161;28;20197;-62
2022/09/30 03:28:39;;;;;;;5.23;4.73;;;;;;;6.52;100.00;95838.66;10373270;28;20267;-58
2022/09/30 03:33:58;;;;;;;6.07;4.67;;;;;;;6.59;100.00;95839.69;10372672;28;20704;-60
2022/09/30 03:39:10;;;;;;;6.03;4.13;;;;;;;6.60;100.00;95843.91;10373432;28;20286;-60
2022/09/30 03:44:40;;;;;;;6.30;4.80;;;;;;;6.57;100.00;95850.25;10370484;28;20197;-60
2022/09/30 03:50:04;;;;;;;7.40;4.63;;;;;;;6.63;100.00;95859.22;10372585;28;20316;-59
2022/09/30 03:55:07;;;;;;;5.00;4.50;;;;;;;6.70;100.00;95862.03;10371737;28;20224;-61
2022/09/30 04:00:08;;;;;;;6.03;4.47;;;;;;;6.64;100.00;95855.63;10371763;28;20413;-60
2022/09/30 04:05:08;;;;;;;5.60;4.50;;;;;;;6.56;100.00;95856.41;10372558;28;20272;-61
2022/09/30 04:10:08;;;;;;;8.20;5.10;;;;;;;6.58;100.00;95854.47;10421419;22;20610;-58
2022/09/30 04:15:09;;;;;;;6.03;5.43;;;;;;;6.47;100.00;95856.50;10412510;28;20620;-58
2022/09/30 04:20:11;;;;;;;10.57;4.93;;;;;;;6.52;100.00;95864.66;10412420;28;20220;-58
2022/09/30 04:25:11;;;;;;;6.13;5.23;;;;;;;6.50;100.00;95858.81;10411749;28;20215;-57
2022/09/30 04:30:12;;;;;;;8.30;5.00;;;;;;;6.58;100.00;95871.88;10412595;28;20266;-58
2022/09/30 04:35:13;;;;;;;5.23;4.63;;;;;;;6.71;100.00;95872.28;10412119;28;20195;-57
2022/09/30 04:40:15;;;;;;;6.57;5.10;;;;;;;6.71;100.00;95877.50;10410929;28;20216;-58
2022/09/30 04:45:15;;;;;;;7.70;4.73;;;;;;;6.82;100.00;95876.41;10411683;28;20219;-57
2022/09/30 04:50:15;;;;;;;6.83;4.80;;;;;;;6.84;100.00;95877.06;10411593;28;20300;-58
2022/09/30 04:55:16;;;;;;;7.67;5.17;;;;;;;6.84;100.00;95881.47;10411122;28;20201;-59
2022/09/30 05:00:17;;;;;;;8.30;4.73;;;;;;;6.69;100.00;95883.81;10411340;28;20228;-59
2022/09/30 05:05:18;;;;;;;7.70;4.50;;;;;;;6.86;100.00;95890.78;10411494;28;20184;-60
2022/09/30 05:10:19;;;;;;;8.43;5.23;;;;;;;6.68;100.00;95893.41;10410583;28;20351;-61
2022/09/30 05:15:19;;;;;;;6.47;5.03;;;;;;;6.60;100.00;95904.59;10411047;28;20192;-58
2022/09/30 05:20:20;;;;;;;6.50;4.13;;;;;;;6.62;100.00;95901.81;10411112;28;20232;-59
2022/09/30 05:25:22;;;;;;;5.70;4.80;;;;;;;6.67;100.00;95920.41;10410650;28;20195;-55
2022/09/30 05:30:22;;;;;;;7.70;5.40;;;;;;;6.55;100.00;95924.22;10410966;28;20209;-58
2022/09/30 05:35:23;;;;;;;9.93;7.10;;;;;;;6.65;100.00;95937.97;10410680;28;20197;-59
2022/09/30 05:40:23;;;;;;;10.10;6.70;;;;;;;6.76;100.00;95939.50;10410227;28;20307;-59
2022/09/30 05:45:24;;;;;;;14.73;6.50;;;;;;;6.79;100.00;95945.22;10409691;28;20196;-59
2022/09/30 05:50:25;;;;;;;7.97;6.47;;;;;;;6.90;100.00;95945.94;10398982;28;20217;-56
2022/09/30 05:55:25;;;;;;;10.33;9.20;;;;;;;7.07;100.00;95949.47;10369850;28;20628;-58
2022/09/30 06:00:25;;;;;;;10.93;8.57;;;;;;;7.12;100.00;95948.03;10369196;28;20221;-57
2022/09/30 06:05:26;;;;;;;7.33;5.27;;;;;;;7.21;100.00;95951.50;10370195;28;20268;-57
2022/09/30 06:10:27;;;;;;;4.70;4.30;;;;;;;7.34;100.00;95958.91;10391947;28;20274;-58
2022/09/30 06:15:27;;;;;;;6.87;5.40;;;;;;;7.21;100.00;95964.50;10395510;28;20189;-57
2022/09/30 06:20:27;;;;;;;8.50;5.07;;;;;;;7.20;100.00;95968.13;10377821;28;20813;-55
2022/09/30 06:25:28;;;;;;;5.60;4.27;;;;;;;7.32;100.00;95971.28;10376267;28;20815;-55
2022/09/30 06:30:29;;;;;;;6.80;4.47;;;;;;;7.50;100.00;95973.78;10376452;28;20213;-58
2022/09/30 06:35:29;;;;;;;7.27;4.00;;;;;;;7.51;100.00;95980.66;10375796;28;20193;-60
2022/09/30 06:40:29;;;;;;;6.50;3.90;;;;;;;7.53;100.00;95986.50;10375877;28;20287;-59
2022/09/30 06:45:31;;;;;;;6.33;3.73;;;;;;;7.98;100.00;95990.63;10375692;28;20197;-59
2022/09/30 06:50:32;;;;;;;4.83;3.97;;;;;;;8.21;100.00;95993.47;10375188;28;20218;-59
2022/09/30 06:55:35;;;;;;;7.57;3.67;;;;;;;8.36;100.00;95998.88;10391806;28;20617;-59
2022/09/30 07:00:36;;;;;;;6.77;3.90;;;;;;;8.33;100.00;95993.97;10411006;28;20733;-60
2022/09/30 07:05:36;;;;;;;4.47;3.50;;;;;;;8.36;100.00;96018.91;10414569;28;20192;-59
2022/09/30 07:10:38;;;;;;;9.03;3.40;;;;;;;8.56;100.00;96017.69;10414037;28;20290;-56
2022/09/30 07:15:40;;;;;;;5.90;3.60;;;;;;;8.99;100.00;96004.50;10414065;28;20196;-54
2022/09/30 07:20:47;;;;;;;3.97;3.30;;;;;;;9.09;100.00;96012.97;10413166;28;20834;-54
2022/09/30 07:25:59;;;;;;;4.70;3.87;;;;;;;9.06;100.00;96020.34;10413416;28;20199;-55
2022/09/30 07:31:05;;;;;;;5.53;3.33;;;;;;;9.15;100.00;96026.38;10412527;28;20208;-54
2022/09/30 07:36:07;;;;;;;5.00;3.00;;;;;;;9.55;100.00;96016.84;10413023;28;20192;-55
2022/09/30 07:41:11;;;;;;;4.47;2.80;;;;;;;9.94;100.00;96014.25;10413339;28;20220;-53
2022/09/30 07:46:23;;;;;;;4.57;3.17;;;;;;;9.76;100.00;96030.19;10412849;28;20279;-60
2022/09/30 07:51:34;;;;;;;5.07;2.70;;;;;;;9.92;100.00;96029.31;10413228;28;20257;-56
2022/09/30 07:56:37;;;;;;;4.60;3.13;;;;;;;10.11;100.00;96032.53;10413260;28;20217;-62
2022/09/30 08:01:38;;;;;;;4.77;3.30;;;;;;;10.43;100.00;96030.72;10412305;28;20217;-57
2022/09/30 08:06:44;;;;;;;5.73;3.30;;;;;;;11.11;100.00;96017.84;10412215;28;20564;-58
2022/09/30 08:11:45;;;;;;;5.15;2.90;;;;;;;11.82;100.00;96015.63;10412614;28;20322;-55
2022/09/30 08:16:45;;;;;;;3.80;2.50;;;;;;;12.72;96.94;96018.94;10412647;28;20224;-53
2022/09/30 08:21:46;;;;;;;4.90;2.28;;;;;;;13.98;82.54;95935.84;10411628;28;20320;-60
2022/09/30 08:26:47;;;;;;;7.00;2.42;;;;;;;15.03;77.10;95911.72;10411453;28;20651;-58
2022/09/30 08:31:47;;;;;;;7.93;2.05;;;;;;;15.33;75.75;95923.44;10409785;28;20215;-59
2022/09/30 08:36:48;;;;;;;8.35;5.00;;;;;;;16.47;68.55;95862.22;10411071;28;20216;-56
2022/09/30 08:41:57;;;;;;;2.45;2.05;;;;;;;17.14;60.58;95786.78;10410921;28;20216;-61
2022/09/30 08:47:28;;;;;;;3.40;3.17;;;;;;;16.57;62.28;95828.19;10409383;28;20220;-60
2022/09/30 08:52:33;;;;;;;3.58;1.70;;;;;;;16.81;61.80;95838.16;10406446;28;20207;-60
2022/09/30 08:57:39;;;;;;;3.38;1.90;;;;;;;17.21;59.93;95820.09;10408516;28;20243;-59
2022/09/30 09:02:53;;;;;;;2.53;1.65;;;;;;;17.47;58.08;95807.56;10407466;28;20200;-58
2022/09/30 09:08:08;;;;;;;6.50;1.70;;;;;;;18.44;54.85;95772.19;10409455;28;20243;-65
2022/09/30 09:13:28;;;;;;;4.25;1.70;;;;;;;19.75;52.45;95781.59;10409869;28;20742;-64
2022/09/30 09:18:42;;;;;;;5.93;1.80;;;;;;;19.56;53.75;95812.81;10409086;28;20305;-67
2022/09/30 09:23:43;;;;;;;3.10;2.20;;;;;;;18.66;54.62;95811.41;10409036;28;20542;-62
2022/09/30 09:28:49;;;;;;;3.92;1.90;;;;;;;18.82;54.46;95824.00;10409162;28;20216;-61
2022/09/30 09:33:51;;;;;;;1.80;1.40;;;;;;;18.62;52.84;95789.00;10409150;28;20272;-61
2022/09/30 09:39:20;;;;;;;3.10;2.13;;;;;;;19.08;53.17;95816.59;10407950;28;20277;-63
2022/09/30 09:44:37;;;;;;;1.83;1.60;;;;;;;18.64;51.04;95755.91;10415945;28;20201;-64
2022/09/30 09:49:44;;;;;;;3.50;2.13;;;;;;;19.45;49.68;95765.03;10401341;28;20200;-63
2022/09/30 09:54:47;;;;;;;1.85;1.60;;;;;;;20.02;47.84;95745.66;10416927;28;20690;-65
2022/09/30 10:05:28;;;;;;;3.53;1.80;;;;;;;19.39;49.41;95769.47;10416053;28;20197;-64
2022/09/30 10:10:45;;;;;;;2.50;1.40;;;;;;;19.20;51.04;95790.88;10453536;22;20621;-65
2022/09/30 10:15:46;;;;;;;2.55;2.13;;;;;;;18.99;51.91;95810.84;10453906;28;20183;-64
2022/09/30 10:20:53;;;;;;;2.88;1.80;;;;;;;20.31;48.59;95779.09;10455187;28;20232;-61
2022/09/30 10:25:57;;;;;;;2.75;1.40;;;;;;;19.88;49.23;95779.72;10456451;28;20176;-63
2022/09/30 10:31:03;;;;;;;3.65;2.80;;;;;;;20.93;47.21;95768.59;10453434;28;20215;-61
2022/09/30 10:36:07;;;;;;;5.63;3.08;;;;;;;21.59;45.71;95757.97;10453802;28;20196;-63
2022/09/30 10:41:08;;;;;;;6.07;2.53;;;;;;;21.29;44.30;95713.94;10431716;28;20232;-62
2022/09/30 10:46:08;;;;;;;2.47;2.17;;;;;;;21.27;47.07;95795.97;10413113;28;20667;-61
2022/09/30 10:51:22;;;;;;;2.55;2.13;;;;;;;21.17;46.44;95779.84;10414664;28;20216;-63
2022/09/30 10:56:41;;;;;;;4.70;2.45;;;;;;;22.21;41.92;95699.91;10413375;28;20224;-62
2022/09/30 11:01:54;;;;;;;3.20;2.22;;;;;;;21.61;44.37;95749.72;10412352;28;20640;-62
2022/09/30 11:07:02;;;;;;;3.60;1.80;;;;;;;23.20;42.12;95755.53;10412591;28;20238;-59
2022/09/30 11:12:10;;;;;;;4.97;1.70;;;;;;;22.82;42.53;95750.25;10410919;28;20263;-62
2022/09/30 11:17:14;;;;;;;2.80;2.08;;;;;;;22.30;43.04;95738.38;10411644;28;20628;-63
2022/09/30 11:22:27;;;;;;;2.05;1.85;;;;;;;22.07;45.18;95793.69;10413507;28;20304;-61
2022/09/30 11:27:37;;;;;;;2.35;1.85;;;;;;;22.01;42.94;95741.34;10412394;28;20690;-61
2022/09/30 11:33:14;;;;;;;4.93;2.63;;;;;;;20.68;45.49;95748.56;10412956;28;20212;-60
2022/09/30 11:38:30;;;;;;;5.28;2.22;;;;;;;20.87;46.70;95781.03;10412416;28;20223;-56
2022/09/30 11:43:36;;;;;;;3.92;1.75;;;;;;;20.12;48.93;95815.78;10411293;28;20193;-61
2022/09/30 11:48:49;;;;;;;2.50;2.10;;;;;;;19.61;51.23;95850.13;10412481;28;20204;-63
2022/09/30 11:54:01;;;;;;;1.60;1.50;;;;;;;19.14;51.56;95839.59;10411015;28;20189;-58
2022/09/30 11:59:03;;;;;;;6.13;2.17;;;;;;;18.43;51.28;95812.19;10411833;28;20239;-60
2022/09/30 12:04:38;;;;;;;4.32;2.20;;;;;;;18.36;53.09;95860.00;10409888;28;20200;-62
2022/09/30 12:09:49;;;;;;;3.72;1.73;;;;;;;18.76;52.92;95864.72;10406775;28;20233;-61
2022/09/30 12:14:55;;;;;;;3.55;1.70;;;;;;;19.61;52.41;95879.34;10410366;28;20192;-61
2022/09/30 12:19:58;;;;;;;2.78;2.00;;;;;;;20.24;47.38;95772.34;10409604;28;20244;-62
2022/09/30 12:25:00;;;;;;;2.05;1.67;;;;;;;21.31;46.50;95788.28;10409670;28;20200;-61
2022/09/30 12:30:16;;;;;;;2.35;2.15;;;;;;;21.09;47.15;95799.72;10410931;28;20212;-65
2022/09/30 12:35:36;;;;;;;3.10;2.20;;;;;;;21.29;46.20;95780.53;10409527;28;20279;-60
2022/09/30 12:40:53;;;;;;;3.63;2.03;;;;;;;20.85;46.41;95761.84;10410505;28;20277;-62
2022/09/30 12:46:08;;;;;;;3.78;2.72;;;;;;;20.50;47.85;95786.84;10410408;28;20196;-62
2022/09/30 12:51:11;;;;;;;5.65;2.20;;;;;;;20.47;48.67;95800.63;10407899;28;20219;-59
2022/09/30 12:56:13;;;;;;;3.97;2.50;;;;;;;20.33;48.07;95788.72;10407771;28;20275;-62
2022/09/30 13:01:25;;;;;;;2.63;2.28;;;;;;;19.14;52.19;95841.41;10408570;28;20308;-61
2022/09/30 13:06:47;;;;;;;2.70;2.03;;;;;;;19.99;51.77;95855.13;10408298;28;20228;-62
2022/09/30 13:12:14;;;;;;;4.57;2.17;;;;;;;20.42;48.63;95790.72;10408858;28;20236;-59
2022/09/30 13:17:14;;;;;;;5.10;2.40;;;;;;;20.03;46.92;95742.75;10408224;28;20239;-62
2022/09/30 13:22:17;;;;;;;3.90;2.35;;;;;;;18.27;52.45;95833.03;10407972;28;20343;-61
2022/09/30 13:27:34;;;;;;;2.88;2.50;;;;;;;18.69;54.26;95887.88;10409088;28;20199;-62
2022/09/30 13:32:39;;;;;;;3.15;2.33;;;;;;;19.30;50.97;95821.34;10409090;28;20243;-63
2022/09/30 13:37:39;;;;;;;3.80;2.40;;;;;;;18.69;54.82;95904.59;10406107;28;20654;-60
2022/09/30 13:42:46;;;;;;;5.53;4.03;;;;;;;18.27;55.79;95911.72;10408827;28;20254;-63
2022/09/30 13:48:09;;;;;;;3.50;2.70;;;;;;;18.30;55.27;95913.94;10407713;28;20671;-63
2022/09/30 13:53:18;;;;;;;3.00;2.40;;;;;;;18.11;55.29;95921.94;10407748;28;20765;-63
2022/09/30 13:58:19;;;;;;;3.72;2.45;;;;;;;17.95;55.83;95930.50;10408636;28;20307;-62
2022/09/30 14:03:58;;;;;;;5.32;4.82;;;;;;;17.67;58.45;95968.06;10408186;28;20762;-60
2022/09/30 14:09:28;;;;;;;5.55;3.45;;;;;;;17.55;55.98;95913.19;10407499;28;20229;-65
2022/09/30 14:14:43;;;;;;;7.68;4.72;;;;;;;17.10;58.36;95958.41;10407833;28;20239;-61
2022/09/30 14:20:08;;;;;;;4.32;2.78;;;;;;;17.07;59.25;95970.22;10407442;28;20232;-60
2022/09/30 14:25:15;;;;;;;2.28;2.05;;;;;;;17.01;60.14;95984.31;10405413;28;20281;-60
2022/09/30 14:30:19;;;;;;;4.95;2.80;;;;;;;16.99;58.05;95937.94;10412300;28;20208;-61
2022/09/30 14:35:22;;;;;;;3.17;2.40;;;;;;;16.39;62.64;96021.91;10416285;28;20200;-63
2022/09/30 14:40:30;;;;;;;6.85;2.38;;;;;;;16.07;58.16;95907.38;10454592;28;20289;-61
2022/09/30 14:45:33;;;;;;;6.40;5.47;;;;;;;14.95;63.50;96002.41;10428598;28;20233;-61
2022/09/30 14:50:47;;;;;;;4.90;2.35;;;;;;;14.47;65.33;96020.94;10373596;28;20751;-64
2022/09/30 14:55:48;;;;;;;3.75;2.78;;;;;;;13.80;68.40;96071.47;10375733;28;20200;-61
2022/09/30 15:01:06;;;;;;;6.85;3.05;;;;;;;14.11;69.74;96088.69;10414332;28;20224;-59
2022/09/30 15:06:19;;;;;;;2.38;1.85;;;;;;;14.24;66.33;96019.41;10416703;28;20193;-60
2022/09/30 15:11:21;;;;;;;4.20;2.30;;;;;;;14.02;67.80;96037.97;10428863;28;20243;-62
2022/09/30 15:16:24;;;;;;;3.00;2.20;;;;;;;13.84;70.35;96079.78;10406121;28;20196;-55
2022/09/30 15:21:26;;;;;;;7.22;4.38;;;;;;;13.43;71.58;96085.75;10427497;28;20220;-58
2022/09/30 15:26:26;;;;;;;9.73;5.93;;;;;;;13.32;73.09;96108.09;10425883;28;20255;-61
2022/09/30 15:31:28;;;;;;;8.55;3.17;;;;;;;13.03;75.57;96120.34;10411021;28;20216;-64
2022/09/30 15:36:28;;;;;;;3.30;2.05;;;;;;;13.57;74.27;96087.50;10411846;28;20360;-59
2022/09/30 15:41:29;;;;;;;5.60;2.53;;;;;;;13.46;78.24;96130.94;10410518;28;20338;-61
2022/09/30 15:46:33;;;;;;;5.38;2.40;;;;;;;14.03;79.58;96115.19;10411917;28;20342;-59
2022/09/30 15:51:37;;;;;;;4.15;2.67;;;;;;;13.25;79.09;96094.09;10412377;28;20213;-59
2022/09/30 15:56:38;;;;;;;6.43;2.33;;;;;;;12.55;77.24;96083.25;10410377;28;20698;-62
2022/09/30 16:01:39;;;;;;;8.20;4.25;;;;;;;12.46;79.31;96108.81;10410935;28;20215;-63
2022/09/30 16:06:39;;;;;;;5.93;2.50;;;;;;;12.49;78.25;96092.69;10417496;28;20662;-62
2022/09/30 16:11:41;;;;;;;16.58;10.80;;;;;;;12.38;79.52;96095.78;10420115;28;20224;-63
2022/09/30 16:21:53;;;;;;;55.70;25.63;;;;;;;11.94;80.73;96111.38;10366046;28;20213;-63
2022/09/30 16:26:58;;;;;;;11.25;6.93;;;;;;;12.01;81.72;96124.56;10378125;28;20187;-62
2022/09/30 16:31:58;;;;;;;4.40;2.40;;;;;;;11.75;83.53;96132.84;10373319;28;20205;-61
2022/09/30 16:37:18;;;;;;;3.05;2.70;;;;;;;11.39;85.11;96142.16;10387877;28;20975;-62
2022/09/30 16:42:19;;;;;;;4.32;2.60;;;;;;;10.91;90.28;96166.88;10386109;28;20177;-61
2022/09/30 16:47:19;;;;;;;7.13;5.47;;;;;;;10.47;95.06;96173.44;10401205;28;20300;-60
2022/09/30 16:52:20;;;;;;;5.40;4.60;;;;;;;9.58;100.00;96174.19;10411050;28;20292;-62
2022/09/30 16:57:20;;;;;;;7.50;3.33;;;;;;;9.36;100.00;96178.28;10398131;28;20695;-59
2022/09/30 17:02:21;;;;;;;15.13;11.17;;;;;;;9.08;100.00;96185.59;10388143;28;20663;-62
2022/09/30 17:07:21;;;;;;;7.33;6.03;;;;;;;8.91;100.00;96192.56;10370391;28;20212;-60
2022/09/30 17:12:21;;;;;;;7.80;5.80;;;;;;;8.67;100.00;96190.72;10370583;28;20185;-61
2022/09/30 17:17:22;;;;;;;12.20;7.60;;;;;;;8.59;100.00;96193.28;10369799;28;20225;-61
2022/09/30 17:22:23;;;;;;;11.53;7.13;;;;;;;8.72;100.00;96204.09;10369962;28;20193;-61
2022/09/30 17:27:23;;;;;;;13.90;8.77;;;;;;;8.80;100.00;96204.13;10382766;28;20293;-60
2022/09/30 17:32:23;;;;;;;9.10;6.77;;;;;;;8.80;100.00;96204.13;10379572;28;20240;-60
2022/09/30 17:37:26;;;;;;;11.47;6.23;;;;;;;8.85;100.00;96204.47;10369290;28;20615;-61
2022/09/30 17:47:45;;;;;;;8.13;4.07;;;;;;;9.24;100.00;96193.47;10368976;28;20268;-62
2022/09/30 17:52:45;;;;;;;6.00;4.57;;;;;;;9.32;100.00;96197.06;10368912;28;20204;-62
2022/09/30 17:57:45;;;;;;;6.20;4.13;;;;;;;9.33;100.00;96183.03;10367996;28;20225;-62
2022/09/30 18:02:47;;;;;;;4.80;3.87;;;;;;;9.33;100.00;96189.06;10371573;28;20316;-59
2022/09/30 18:07:47;;;;;;;9.00;4.37;;;;;;;9.00;100.00;96198.63;10376608;28;20208;-62
2022/09/30 18:12:48;;;;;;;6.00;4.40;;;;;;;8.70;100.00;96204.25;10376468;28;20197;-61
2022/09/30 18:17:48;;;;;;;12.57;4.80;;;;;;;8.56;100.00;96210.09;10375761;28;20228;-61
2022/09/30 18:22:49;;;;;;;5.40;4.33;;;;;;;8.44;100.00;96219.97;10376049;28;20280;-62
2022/09/30 18:27:55;;;;;;;7.63;4.70;;;;;;;8.29;100.00;96216.28;10376170;28;20580;-62
2022/09/30 18:32:57;;;;;;;7.33;4.50;;;;;;;8.03;100.00;96225.72;10375660;28;20193;-62
2022/09/30 18:37:58;;;;;;;8.10;4.27;;;;;;;8.11;100.00;96219.72;10386900;28;20588;-61
2022/09/30 18:43:01;;;;;;;6.53;4.83;;;;;;;8.00;100.00;96220.00;10389690;28;20198;-59
2022/09/30 18:48:01;;;;;;;6.53;4.73;;;;;;;7.82;100.00;96228.66;10385110;28;20287;-59
2022/09/30 18:53:05;;;;;;;5.47;4.50;;;;;;;7.64;100.00;96225.25;10393674;28;20186;-61
2022/09/30 18:58:06;;;;;;;6.73;4.07;;;;;;;7.60;100.00;96229.16;10384502;28;20279;-59
2022/09/30 19:03:09;;;;;;;8.63;5.33;;;;;;;7.40;100.00;96224.06;10377879;28;20674;-61
2022/09/30 19:08:11;;;;;;;7.60;4.97;;;;;;;7.35;100.00;96225.47;10406480;28;20295;-58
2022/09/30 19:13:12;;;;;;;9.53;5.50;;;;;;;7.30;100.00;96228.53;10402293;28;20605;-61
2022/09/30 19:18:12;;;;;;;7.63;5.67;;;;;;;7.21;100.00;96219.00;10388846;28;20299;-59
2022/09/30 19:23:13;;;;;;;6.87;4.40;;;;;;;7.17;100.00;96217.66;10392449;28;20999;-58
2022/09/30 19:28:13;;;;;;;7.73;4.67;;;;;;;7.10;100.00;96210.41;10392226;28;20353;-60
2022/09/30 19:33:15;;;;;;;9.90;5.17;;;;;;;6.97;100.00;96212.59;10377734;28;20205;-58
2022/09/30 19:38:15;;;;;;;5.27;4.20;;;;;;;6.93;100.00;96219.03;10372968;28;20283;-57
2022/09/30 19:43:18;;;;;;;7.20;4.20;;;;;;;6.93;100.00;96219.84;10373261;28;20683;-60
2022/09/30 19:48:19;;;;;;;6.60;4.30;;;;;;;6.86;100.00;96207.56;10372706;28;20567;-60
2022/09/30 19:53:19;;;;;;;5.33;4.07;;;;;;;6.85;100.00;96206.75;10379459;28;20192;-60
2022/09/30 19:58:20;;;;;;;5.67;4.20;;;;;;;6.77;100.00;96207.47;10372498;28;20225;-58
2022/09/30 20:03:21;;;;;;;6.77;4.80;;;;;;;6.75;100.00;96199.00;10371987;28;20197;-60
2022/09/30 20:08:21;;;;;;;9.10;4.50;;;;;;;6.74;100.00;96204.34;10372402;28;20205;-59
2022/09/30 20:13:21;;;;;;;7.20;4.73;;;;;;;6.76;100.00;96200.63;10371275;28;20193;-59
2022/09/30 20:18:22;;;;;;;5.50;4.30;;;;;;;6.81;100.00;96209.78;10371369;28;20291;-59
2022/09/30 20:23:23;;;;;;;8.73;4.30;;;;;;;6.86;100.00;96205.78;10372015;28;20247;-58
2022/09/30 20:28:24;;;;;;;6.70;4.80;;;;;;;6.90;100.00;96211.50;10369661;28;20217;-56
2022/09/30 20:33:24;;;;;;;15.40;4.17;;;;;;;6.96;100.00;96213.53;10370979;28;20209;-58
2022/09/30 20:38:25;;;;;;;6.80;4.47;;;;;;;6.82;100.00;96217.44;10370375;28;20331;-59
2022/09/30 20:43:28;;;;;;;8.90;5.30;;;;;;;6.71;100.00;96217.66;10370518;28;20193;-59
2022/09/30 20:48:35;;;;;;;9.90;5.27;;;;;;;6.77;100.00;96220.50;10369234;28;20633;-58
2022/09/30 20:53:38;;;;;;;8.30;4.90;;;;;;;6.80;100.00;96224.59;10369492;28;20550;-58
2022/09/30 20:58:39;;;;;;;13.03;5.73;;;;;;;6.71;100.00;96217.66;10370053;28;20694;-60
2022/09/30 21:03:40;;;;;;;11.97;6.10;;;;;;;6.61;100.00;96220.28;10368302;28;20192;-60
2022/09/30 21:08:41;;;;;;;5.57;4.60;;;;;;;6.71;100.00;96225.47;10368145;28;20220;-59
2022/09/30 21:13:43;;;;;;;9.60;5.93;;;;;;;6.56;100.00;96227.72;10369626;28;20205;-60
2022/09/30 21:18:43;;;;;;;8.80;5.13;;;;;;;6.55;100.00;96228.66;10369739;28;20239;-60
2022/09/30 21:23:44;;;;;;;5.60;4.57;;;;;;;6.64;100.00;96229.59;10370536;28;20711;-60
2022/09/30 21:28:47;;;;;;;6.63;5.00;;;;;;;6.58;100.00;96224.03;10367721;28;20217;-58
2022/09/30 21:33:55;;;;;;;7.83;5.17;;;;;;;6.49;100.00;96231.84;10369277;28;20686;-60
2022/09/30 21:39:00;;;;;;;6.90;4.70;;;;;;;6.50;100.00;96230.91;10373861;28;20240;-60
2022/09/30 21:44:02;;;;;;;5.47;4.20;;;;;;;6.53;100.00;96228.81;10378387;28;20189;-60
2022/09/30 21:49:16;;;;;;;7.93;5.00;;;;;;;6.46;100.00;96232.13;10377201;28;20782;-57
2022/09/30 21:54:18;;;;;;;7.97;5.33;;;;;;;6.32;100.00;96225.59;10377445;28;20192;-61
2022/09/30 21:59:18;;;;;;;8.33;6.30;;;;;;;6.22;100.00;96231.66;10376912;28;20719;-59
2022/09/30 22:04:18;;;;;;;8.30;5.10;;;;;;;6.19;100.00;96225.94;10377383;28;20196;-60
2022/09/30 22:09:19;;;;;;;8.87;4.43;;;;;;;6.16;100.00;96228.81;10376743;28;20288;-57
2022/09/30 22:14:19;;;;;;;7.27;4.60;;;;;;;6.11;100.00;96223.19;10375398;28;20220;-55
2022/09/30 22:19:20;;;;;;;5.97;4.27;;;;;;;6.00;100.00;96219.81;10376358;28;20245;-56
2022/09/30 22:24:21;;;;;;;7.83;4.60;;;;;;;5.84;100.00;96225.53;10436196;22;20240;-62
2022/09/30 22:29:21;;;;;;;8.87;4.97;;;;;;;5.80;100.00;96233.75;10390405;28;20184;-64
2022/09/30 22:39:40;;;;;;;8.87;5.27;;;;;;;5.79;100.00;96245.09;10417282;28;20304;-62
2022/09/30 22:44:40;;;;;;;5.23;4.53;;;;;;;5.85;100.00;96241.94;10417223;28;20198;-63
2022/09/30 22:49:41;;;;;;;5.67;4.53;;;;;;;5.83;100.00;96230.88;10422696;28;20279;-62
2022/09/30 22:54:41;;;;;;;7.00;4.77;;;;;;;5.82;100.00;96250.88;10457700;28;20192;-63
2022/09/30 22:59:42;;;;;;;6.17;5.17;;;;;;;5.81;100.00;96244.00;10449826;28;20213;-63
2022/09/30 23:04:43;;;;;;;9.63;4.70;;;;;;;5.81;100.00;96238.81;10435149;28;20258;-62
2022/09/30 23:09:43;;;;;;;6.77;4.87;;;;;;;5.72;100.00;96240.47;10457359;28;20195;-63
2022/09/30 23:14:43;;;;;;;9.70;5.23;;;;;;;5.70;100.00;96242.38;10456696;28;20267;-63
2022/09/30 23:19:44;;;;;;;8.17;4.77;;;;;;;5.77;100.00;96245.25;10453328;28;20230;-60
2022/09/30 23:24:44;;;;;;;6.13;4.10;;;;;;;5.76;100.00;96242.78;10456382;28;20239;-63
2022/09/30 23:29:45;;;;;;;6.93;4.50;;;;;;;5.74;100.00;96252.50;10419345;28;20756;-61
2022/09/30 23:34:45;;;;;;;8.20;4.00;;;;;;;5.77;100.00;96260.03;10415268;28;20681;-63
2022/09/30 23:39:45;;;;;;;5.67;4.20;;;;;;;5.60;100.00;96248.53;10414517;28;20766;-61
2022/09/30 23:44:46;;;;;;;4.13;3.57;;;;;;;5.66;100.00;96253.19;10414703;28;20666;-60
2022/09/30 23:49:46;;;;;;;5.63;4.53;;;;;;;5.68;100.00;96246.06;10413638;28;20663;-61
2022/09/30 23:54:46;;;;;;;5.20;4.27;;;;;;;5.57;100.00;96249.63;10414015;28;20667;-62
2022/09/30 23:59:47;;;;;;;5.43;3.60;;;;;;;5.52;100.00;96252.63;10449152;28;20720;-63
